Hovedside
METAR-TAF:

METAR-TAF

Lufthavner :

Stord lufthavn. Sørstokken

Stord, Norge

breddegrad: 59-48N, lengdegrad: 005-21E, høyde over havet: 49 m

Gjeldene værobservasjon

Denne rapporten ble laget for 16 timer og 56 minutter siden, klokken 17:20 UTC
Vind 12 kt fra Nordvest
Temperatur 17°C
Luftfuktighet 63%
Trykk 1017 hPa
Sikt 10 km eller mer
ingen skyer under 1500 m og ingen bygeskyer

METAR: ENSO 191720Z 31012KT CAVOK 17/10 Q1017

Tid: 12:16 (10:16 UTC)

Varsel

Denne rapporten ble laget for 20 timer og 16 minutter siden, klokken 14:00 UTC
Varsel gyldig fra 19. klokken 15 UTC til 19. klokken 18 UTC
Vind 15 kt fra Nord-nordvest
Sikt 10 km eller mer
Få skyer i en høyde av 2000 ft

TAF: ENSO 191400Z 1915/1918 33015KT 9999 FEW020

Værobservasjoner og værvarsel for over 4000 flyplasser (METAR- og TAF-rapporter).

Tilgjengelige stasjoner er representert av de røde og gule prikkene på kartet.

Hold musepekeren over prikken for å se navnet på stasjonen.

Klikk så for å se værobservasjoner og -varsler.

For å forandre kartet kan du klikke på den grønne knappen med svart kryss for å zoome inn, på den grønne knappen med strek for å zoome ut, eller på de grønne pilene for å se tilstøtende kart.


METAR-TAF: